Time;durP1;ratioP1;P1;durP2;ratioP2;P2;SDS_P1;SDS_P2;PMS_P1;PMS_P2;Temp;Humidity;BMP_temperature;BMP_pressure;BME280_temperature;BME280_humidity;BME280_pressure;Samples;Min_cycle;Max_cycle;Signal;HPM_P1;HPM_P2
2022/05/24 00:01:52;;;;;;;3.72;1.70;;;;;;;9.97;26.55;98704.38;6147978;23;20454;-81
2022/05/24 00:04:18;;;;;;;2.55;1.50;;;;;;;10.16;26.06;98745.53;6176581;23;20021;-81
2022/05/24 00:06:45;;;;;;;1.70;1.35;;;;;;;10.02;26.80;98740.69;6136627;23;20028;-84
2022/05/24 00:09:11;;;;;;;2.92;1.77;;;;;;;10.06;26.55;98737.09;6159051;23;20451;-81
2022/05/24 00:11:37;;;;;;;2.20;1.40;;;;;;;9.90;26.74;98726.22;6159643;23;20025;-82
2022/05/24 00:14:03;;;;;;;6.65;3.42;;;;;;;10.13;26.39;98756.00;6160525;23;20019;-81
2022/05/24 00:16:29;;;;;;;5.97;2.88;;;;;;;10.04;26.50;98744.94;6161831;23;20025;-82
2022/05/24 00:18:55;;;;;;;4.63;1.77;;;;;;;10.00;26.95;98740.69;6171662;23;20020;-80
2022/05/24 00:21:21;;;;;;;6.07;2.53;;;;;;;10.23;27.05;98768.75;6195122;23;20451;-81
2022/05/24 00:23:47;;;;;;;3.70;2.17;;;;;;;10.34;27.11;98794.50;6144386;23;20470;-81
2022/05/24 00:26:24;;;;;;;7.80;3.33;;;;;;;10.33;26.93;98794.53;6168498;23;20469;-81
2022/05/24 00:28:51;;;;;;;2.80;1.40;;;;;;;10.00;27.12;98747.66;6197019;23;20017;-81
2022/05/24 00:31:17;;;;;;;2.53;1.48;;;;;;;10.28;27.01;98798.97;6149423;23;20076;-81
2022/05/24 00:33:43;;;;;;;3.45;1.80;;;;;;;10.13;26.75;98774.22;6165226;23;20028;-81
2022/05/24 00:36:09;;;;;;;3.58;1.65;;;;;;;9.80;27.27;98730.78;6188585;23;20017;-82
2022/05/24 00:38:39;;;;;;;4.28;2.72;;;;;;;10.10;27.52;98780.31;6189732;23;20017;-84
2022/05/24 00:41:25;;;;;;;5.38;2.50;;;;;;;9.54;27.29;98682.88;6125153;23;20052;-83
2022/05/24 00:44:03;;;;;;;4.63;1.75;;;;;;;10.22;27.42;98797.38;6176847;23;20028;-83
2022/05/24 00:46:56;;;;;;;5.40;2.42;;;;;;;10.22;27.55;98798.25;6175174;23;20066;-82
2022/05/24 00:49:37;;;;;;;4.13;2.20;;;;;;;10.25;27.99;98799.91;6147322;23;20031;-82
2022/05/24 00:52:08;;;;;;;4.22;1.88;;;;;;;10.24;27.88;98800.81;6210389;23;20005;-81
2022/05/24 00:54:34;;;;;;;2.97;2.05;;;;;;;9.55;28.01;98684.56;6184651;23;20029;-82
2022/05/24 00:57:08;;;;;;;4.75;1.65;;;;;;;10.28;28.27;98804.16;6209611;23;20032;-80
2022/05/24 00:59:44;;;;;;;5.60;1.80;;;;;;;10.07;28.54;98770.88;6178185;23;20594;-81
2022/05/24 01:02:11;;;;;;;6.63;1.98;;;;;;;9.99;28.54;98756.34;6136755;23;20481;-79
2022/05/24 01:04:40;;;;;;;4.43;1.88;;;;;;;10.27;28.55;98805.06;6186518;23;20025;-83
2022/05/24 01:07:06;;;;;;;2.30;1.80;;;;;;;10.18;28.46;98783.59;6160733;23;20144;-84
2022/05/24 01:09:44;;;;;;;4.95;2.20;;;;;;;10.22;28.70;98789.56;6159034;23;20036;-83
2022/05/24 01:12:23;;;;;;;6.28;2.33;;;;;;;10.01;28.91;98750.19;6159213;23;20017;-82
2022/05/24 01:14:53;;;;;;;7.60;2.03;;;;;;;10.31;29.04;98802.38;6134806;23;20028;-83
2022/05/24 01:17:20;;;;;;;5.45;2.05;;;;;;;10.27;29.40;98799.84;6134855;23;20036;-81
2022/05/24 01:19:48;;;;;;;2.60;1.90;;;;;;;10.14;29.26;98789.75;6159701;23;20017;-82
2022/05/24 01:22:41;;;;;;;5.10;2.03;;;;;;;10.30;29.50;98805.00;6135257;23;20013;-83
2022/05/24 01:25:25;;;;;;;3.97;2.00;;;;;;;10.33;29.67;98802.31;6134737;23;20362;-83
2022/05/24 01:27:52;;;;;;;4.50;1.95;;;;;;;10.29;29.93;98796.34;6158458;23;20028;-82
2022/05/24 01:30:18;;;;;;;4.20;1.90;;;;;;;10.18;29.98;98773.22;6158007;23;20475;-81
2022/05/24 01:38:18;;;;;;;4.38;1.92;;;;;;;10.43;30.47;98803.84;6191844;23;20005;-83
2022/05/24 01:40:47;;;;;;;3.15;2.10;;;;;;;10.43;30.08;98808.19;6192391;23;20521;-81
2022/05/24 01:43:19;;;;;;;5.13;1.85;;;;;;;10.32;30.19;98795.41;6171455;23;20116;-81
2022/05/24 01:46:09;;;;;;;;;;;;;;;10.40;30.42;98804.78;6167527;23;20071;-81
2022/05/24 01:48:50;;;;;;;2.65;1.65;;;;;;;10.43;29.97;98811.66;6166552;23;19936;-81
2022/05/24 01:51:22;;;;;;;3.10;1.60;;;;;;;10.07;29.99;98755.25;6168190;23;20017;-83
2022/05/24 01:53:54;;;;;;;3.85;2.42;;;;;;;10.41;30.37;98810.84;6162627;23;20028;-83
2022/05/24 01:56:23;;;;;;;;;;;;;;;10.37;30.21;98814.38;6175436;23;20017;-80
2022/05/24 01:58:53;;;;;;;4.43;1.85;;;;;;;10.02;29.98;98756.28;6181196;23;19919;-83
2022/05/24 02:01:35;;;;;;;3.00;1.80;;;;;;;10.08;30.04;98759.56;6176667;23;20528;-84
2022/05/24 02:04:01;;;;;;;5.38;1.73;;;;;;;10.07;30.35;98750.06;6163647;23;20095;-82
2022/05/24 02:06:29;;;;;;;4.38;2.00;;;;;;;10.54;30.27;98825.25;6163659;23;20017;-82
2022/05/24 02:08:55;;;;;;;4.03;2.08;;;;;;;10.42;30.75;98785.66;6161990;23;20072;-83
2022/05/24 02:11:28;;;;;;;2.45;1.70;;;;;;;10.38;30.67;98796.16;6161869;23;20514;-82
2022/05/24 02:14:05;;;;;;;5.07;1.80;;;;;;;10.35;31.03;98792.75;6160735;23;20021;-82
2022/05/24 02:16:33;;;;;;;3.88;1.77;;;;;;;10.43;31.12;98801.25;6161385;23;20032;-84
2022/05/24 02:19:02;;;;;;;4.18;2.00;;;;;;;10.35;31.74;98771.94;6164201;23;20110;-85
2022/05/24 02:21:28;;;;;;;5.05;1.90;;;;;;;10.54;31.48;98785.38;6161753;23;20024;-82
2022/05/24 02:23:54;;;;;;;4.55;2.10;;;;;;;10.73;31.11;98809.19;6161750;23;20013;-83
2022/05/24 02:26:23;;;;;;;5.50;2.08;;;;;;;10.51;31.52;98760.28;6136937;23;20005;-84
2022/05/24 02:28:51;;;;;;;6.60;2.20;;;;;;;10.91;31.48;98810.47;6136064;23;20591;-82
2022/05/24 02:31:22;;;;;;;6.40;2.00;;;;;;;11.03;31.17;98813.66;6094142;23;20068;-83
2022/05/24 02:33:49;;;;;;;5.38;2.35;;;;;;;11.05;31.00;98809.22;6118195;23;20387;-83
2022/05/24 02:36:16;;;;;;;3.83;1.83;;;;;;;11.12;30.96;98816.00;6161096;23;20482;-83
2022/05/24 02:38:42;;;;;;;3.50;2.00;;;;;;;11.17;30.65;98810.66;6159602;23;20037;-81
2022/05/24 02:43:53;;;;;;;5.80;2.50;;;;;;;11.28;30.33;98806.03;6159714;23;20028;-81
2022/05/24 02:46:20;;;;;;;5.82;2.30;;;;;;;11.49;30.53;98819.34;6160423;23;20021;-81
2022/05/24 02:48:47;;;;;;;7.20;2.15;;;;;;;11.64;29.87;98823.28;6188392;23;20017;-84
2022/05/24 02:51:15;;;;;;;9.18;2.35;;;;;;;11.79;30.14;98824.56;6167268;23;20048;-81
2022/05/24 02:53:43;;;;;;;3.05;1.90;;;;;;;11.90;29.54;98830.31;6189264;23;20466;-82
2022/05/24 02:56:09;;;;;;;4.22;2.10;;;;;;;12.02;29.65;98821.31;6135918;23;20017;-85
2022/05/24 02:58:36;;;;;;;8.68;2.53;;;;;;;12.11;29.71;98810.59;6161141;23;20522;-82
2022/05/24 03:01:04;;;;;;;7.30;2.58;;;;;;;12.18;29.87;98825.13;6136764;23;20657;-84
2022/05/24 03:03:30;;;;;;;5.10;2.10;;;;;;;12.26;29.61;98821.44;6161142;23;20100;-82
2022/05/24 03:05:56;;;;;;;3.05;2.03;;;;;;;12.29;30.11;98822.19;6161287;23;20076;-82
2022/05/24 03:11:09;;;;;;;5.13;2.25;;;;;;;12.26;29.69;98814.47;6160202;23;20017;-83
2022/05/24 03:16:27;;;;;;;3.17;2.00;;;;;;;12.10;30.08;98793.25;6187044;23;20366;-81
2022/05/24 03:18:58;;;;;;;6.75;2.50;;;;;;;12.32;29.93;98819.50;6137889;23;20063;-82
2022/05/24 03:21:24;;;;;;;4.32;2.20;;;;;;;11.99;29.85;98757.09;6191808;23;20084;-83
2022/05/24 03:23:51;;;;;;;5.80;2.50;;;;;;;11.73;29.78;98700.50;6177849;23;20017;-83
2022/05/24 03:26:17;;;;;;;4.03;2.10;;;;;;;12.21;29.80;98761.63;6167744;23;20474;-80
2022/05/24 03:29:00;;;;;;;10.73;2.72;;;;;;;12.61;29.24;98815.09;6165014;23;20017;-82
2022/05/24 03:31:26;;;;;;;6.88;2.38;;;;;;;12.52;29.53;98760.59;6161272;23;20016;-80
2022/05/24 03:33:53;;;;;;;3.60;2.05;;;;;;;12.65;28.95;98780.19;6163823;23;20367;-80
2022/05/24 03:36:22;;;;;;;3.90;1.95;;;;;;;12.75;28.61;98795.50;6197353;23;20107;-80
2022/05/24 03:38:48;;;;;;;5.18;2.00;;;;;;;12.91;28.57;98801.06;6141608;23;20020;-79
2022/05/24 03:41:14;;;;;;;4.18;1.90;;;;;;;12.98;28.27;98812.16;6160999;23;20513;-81
2022/05/24 03:43:40;;;;;;;4.00;2.08;;;;;;;12.98;28.22;98786.91;6135248;23;20462;-81
2022/05/24 03:46:10;;;;;;;2.22;1.73;;;;;;;13.10;28.40;98799.50;6158169;23;20017;-77
2022/05/24 03:48:37;;;;;;;3.25;1.73;;;;;;;13.17;27.76;98791.47;6157398;23;20474;-77
2022/05/24 03:51:04;;;;;;;5.50;1.73;;;;;;;13.29;27.47;98805.84;6183780;23;20025;-77
2022/05/24 03:53:30;;;;;;;7.70;2.00;;;;;;;13.18;27.27;98783.56;6108507;23;20021;-78
2022/05/24 03:55:57;;;;;;;7.22;2.00;;;;;;;13.26;27.20;98806.78;6132645;23;20020;-80
2022/05/24 03:58:23;;;;;;;6.80;2.00;;;;;;;13.29;27.12;98816.31;6158513;23;20107;-78
2022/05/24 04:00:49;;;;;;;5.97;2.00;;;;;;;13.29;27.13;98813.69;6158944;23;20136;-78
2022/05/24 04:03:15;;;;;;;5.28;1.70;;;;;;;13.25;27.15;98790.28;6159244;23;20371;-76
2022/05/24 04:05:42;;;;;;;4.20;1.80;;;;;;;13.35;27.20;98800.41;6184351;23;20270;-79
2022/05/24 04:08:09;;;;;;;3.53;1.88;;;;;;;13.35;26.91;98789.97;6157667;23;20096;-79
2022/05/24 04:10:36;;;;;;;7.20;1.55;;;;;;;13.38;26.81;98761.09;6184012;23;20079;-78
2022/05/24 04:13:03;;;;;;;3.60;1.83;;;;;;;13.50;26.47;98778.09;6183786;23;20036;-81
2022/05/24 04:15:29;;;;;;;4.05;1.80;;;;;;;13.63;26.35;98773.28;6183990;23;20067;-80
2022/05/24 04:17:56;;;;;;;3.28;2.00;;;;;;;13.71;26.24;98776.47;6183691;23;20017;-79
2022/05/24 04:20:25;;;;;;;5.55;1.63;;;;;;;13.78;26.17;98783.16;6108540;23;20344;-79
2022/05/24 04:22:53;;;;;;;4.80;1.70;;;;;;;13.83;26.18;98780.38;6160147;23;20021;-80
2022/05/24 04:25:20;;;;;;;5.10;1.77;;;;;;;13.82;25.96;98789.97;6163314;23;20407;-76
2022/05/24 04:27:47;;;;;;;6.93;1.55;;;;;;;13.82;26.24;98781.28;6159974;23;20027;-79
2022/05/24 04:30:15;;;;;;;2.97;1.67;;;;;;;13.97;26.05;98779.84;6157760;23;20052;-80
2022/05/24 04:32:45;;;;;;;3.83;1.90;;;;;;;13.93;25.94;98775.63;6131928;23;20487;-80
2022/05/24 04:35:11;;;;;;;6.22;1.98;;;;;;;13.89;25.77;98784.50;6132366;23;20020;-78
2022/05/24 04:37:38;;;;;;;3.67;1.63;;;;;;;13.88;25.88;98782.78;6156741;23;20017;-78
2022/05/24 04:40:07;;;;;;;7.05;2.00;;;;;;;13.76;25.73;98786.72;6183361;23;20103;-81
2022/05/24 04:42:33;;;;;;;2.95;1.80;;;;;;;13.66;25.63;98765.31;6157267;23;20020;-82
2022/05/24 04:45:06;;;;;;;5.25;1.95;;;;;;;13.70;25.86;98788.66;6156908;23;20447;-80
2022/05/24 04:47:33;;;;;;;3.60;1.80;;;;;;;13.57;26.05;98783.97;6133329;23;20017;-80
2022/05/24 04:50:02;;;;;;;6.18;2.13;;;;;;;13.51;25.96;98778.06;6132874;23;20048;-83
2022/05/24 04:52:36;;;;;;;4.55;1.90;;;;;;;13.42;25.99;98773.16;6184013;23;20031;-81
2022/05/24 04:55:06;;;;;;;3.97;1.52;;;;;;;13.39;25.91;98787.19;6157039;23;20017;-79
2022/05/24 04:57:33;;;;;;;5.37;1.90;;;;;;;13.31;25.88;98777.91;6157450;23;20084;-77
2022/05/24 04:59:59;;;;;;;5.13;2.00;;;;;;;13.39;25.85;98788.91;6157112;23;20120;-79
2022/05/24 05:02:32;;;;;;;4.32;1.80;;;;;;;12.97;25.52;98719.91;6108225;23;20021;-84
2022/05/24 05:05:11;;;;;;;4.07;2.00;;;;;;;13.43;25.69;98789.72;6156848;23;20072;-79
2022/05/24 05:07:38;;;;;;;4.65;1.80;;;;;;;13.35;25.35;98725.47;6157212;23;20100;-80
2022/05/24 05:10:05;;;;;;;6.25;1.83;;;;;;;13.94;25.30;98779.94;6183636;23;20013;-80
2022/05/24 05:12:32;;;;;;;4.55;2.00;;;;;;;14.00;24.83;98761.41;6157182;23;20044;-79
2022/05/24 05:14:59;;;;;;;4.80;1.88;;;;;;;14.10;24.85;98767.97;6156740;23;20036;-81
2022/05/24 05:17:25;;;;;;;3.28;1.70;;;;;;;14.27;24.72;98754.22;6157271;23;20493;-80
2022/05/24 05:19:51;;;;;;;4.20;1.80;;;;;;;14.57;24.09;98771.31;6132991;23;20024;-78
2022/05/24 05:22:21;;;;;;;5.03;1.70;;;;;;;14.70;24.38;98769.91;6188855;23;20366;-78
2022/05/24 05:24:49;;;;;;;3.70;1.75;;;;;;;14.81;23.92;98766.84;6158700;23;20009;-79
2022/05/24 05:27:15;;;;;;;4.90;1.50;;;;;;;15.14;23.36;98760.22;6157624;23;20013;-79
2022/05/24 05:32:31;;;;;;;6.13;1.95;;;;;;;15.76;22.68;98757.44;6161713;23;20035;-79
2022/05/24 05:35:02;;;;;;;2.90;2.15;;;;;;;15.98;22.08;98749.41;6159310;23;20013;-79
2022/05/24 05:37:32;;;;;;;3.33;1.83;;;;;;;16.48;21.49;98760.16;6134569;23;20051;-80
2022/05/24 05:40:04;;;;;;;3.10;1.73;;;;;;;16.67;21.77;98733.78;6159592;23;20017;-79
2022/05/24 05:42:38;;;;;;;3.53;1.60;;;;;;;16.91;21.56;98754.47;6127757;23;20073;-82
2022/05/24 05:45:06;;;;;;;3.50;1.70;;;;;;;16.54;21.52;98712.59;6203733;23;20020;-83
2022/05/24 05:47:32;;;;;;;3.05;1.70;;;;;;;16.79;21.44;98753.34;6187016;23;20095;-78
2022/05/24 05:49:58;;;;;;;2.58;1.60;;;;;;;16.73;21.28;98756.28;6158475;23;20017;-77
2022/05/24 05:52:24;;;;;;;2.15;1.60;;;;;;;16.56;21.38;98748.34;6157618;23;20340;-78
2022/05/24 05:54:50;;;;;;;3.90;1.60;;;;;;;16.33;21.36;98732.88;6132918;23;20525;-78
2022/05/24 05:57:16;;;;;;;4.97;1.60;;;;;;;16.26;21.48;98775.16;6133078;23;20016;-79
2022/05/24 05:59:45;;;;;;;3.47;1.70;;;;;;;16.17;21.43;98770.38;6131108;23;20073;-78
2022/05/24 06:02:25;;;;;;;7.53;1.85;;;;;;;16.10;21.40;98782.97;6183134;23;20021;-80
2022/05/24 06:05:29;;;;;;;4.85;1.85;;;;;;;15.51;21.45;98717.47;6156383;23;20426;-78
2022/05/24 06:08:04;;;;;;;5.40;1.73;;;;;;;16.04;21.43;98779.75;6159378;23;20059;-80
2022/05/24 06:11:13;;;;;;;4.43;1.50;;;;;;;16.00;21.13;98779.06;6110874;23;20016;-79
2022/05/24 06:14:04;;;;;;;;;;;;;;;;;;;;;
2022/05/24 06:16:50;;;;;;;3.05;1.60;;;;;;;15.74;20.87;98697.19;6138476;23;20077;-79
2022/05/24 06:19:45;;;;;;;6.43;1.92;;;;;;;15.68;20.67;98675.66;6188812;23;20456;-79
2022/05/24 06:22:26;;;;;;;5.20;1.90;;;;;;;16.49;20.48;98765.31;6161297;23;20097;-78
2022/05/24 06:25:07;;;;;;;;;;;;;;;16.66;20.24;98763.66;6159619;23;20075;-80
2022/05/24 06:32:16;;;;;;;7.00;1.58;;;;;;;15.94;20.64;98740.00;6147722;23;20021;-81
2022/05/24 06:34:49;;;;;;;3.88;1.38;;;;;;;16.16;20.61;98749.44;6172192;23;20017;-82
2022/05/24 06:37:20;;;;;;;2.40;1.50;;;;;;;16.05;20.36;98694.88;6149274;23;20017;-81
2022/05/24 06:40:07;;;;;;;4.47;1.63;;;;;;;16.04;20.39;98699.28;6174797;23;20043;-81
2022/05/24 06:43:05;;;;;;;2.55;1.42;;;;;;;16.31;20.52;98753.97;6200002;23;20029;-81
2022/05/24 06:45:36;;;;;;;3.60;2.05;;;;;;;16.71;20.05;98780.00;6149902;23;20012;-82
2022/05/24 06:52:36;;;;;;;4.38;2.22;;;;;;;17.04;19.78;98776.63;6132888;23;20009;-82
2022/05/24 07:02:40;;;;;;;4.03;1.60;;;;;;;17.09;19.76;98677.38;6124166;23;20021;-80
2022/05/24 07:12:31;;;;;;;3.05;1.70;;;;;;;17.74;19.22;98786.94;6102259;23;20573;-82
2022/05/24 07:15:01;;;;;;;3.47;1.48;;;;;;;16.92;18.99;98643.22;6081488;23;20022;-82
2022/05/24 07:17:33;;;;;;;3.17;1.42;;;;;;;17.23;19.20;98773.84;6097211;23;20014;-80
2022/05/24 07:20:06;;;;;;;7.63;1.90;;;;;;;16.67;18.91;98723.28;6148442;23;20032;-82
2022/05/24 07:22:43;;;;;;;4.13;1.58;;;;;;;16.38;18.88;98715.13;6163977;23;20347;-82
2022/05/24 07:25:58;;;;;;;9.75;1.70;;;;;;;16.66;18.75;98780.22;6161193;23;20350;-81
2022/05/24 07:34:12;;;;;;;7.65;1.35;;;;;;;16.21;18.86;98784.19;5913889;23;20022;-82
2022/05/24 07:36:47;;;;;;;3.97;1.77;;;;;;;16.03;18.71;98751.81;6065708;23;20021;-82
2022/05/24 07:39:14;;;;;;;4.35;1.50;;;;;;;16.01;18.98;98722.16;6128311;23;20028;-84
2022/05/24 07:47:12;;;;;;;3.33;1.70;;;;;;;16.88;18.89;98759.94;6139618;23;20021;-80
2022/05/24 07:49:41;;;;;;;2.22;1.70;;;;;;;16.71;18.83;98741.47;6146957;23;20021;-81
2022/05/24 07:52:07;;;;;;;2.83;1.67;;;;;;;16.61;19.03;98749.88;6170823;23;20021;-82
2022/05/24 07:54:34;;;;;;;2.25;1.48;;;;;;;16.45;19.09;98718.28;6191792;23;20019;-86
2022/05/24 07:57:01;;;;;;;4.28;1.80;;;;;;;16.93;19.17;98774.50;6168604;23;20027;-79
2022/05/24 07:59:27;;;;;;;6.82;2.20;;;;;;;16.53;19.37;98716.16;6149973;23;20001;-83
2022/05/24 08:01:56;;;;;;;6.65;1.67;;;;;;;16.77;19.30;98798.09;6202925;23;20020;-83
2022/05/24 08:04:52;;;;;;;3.70;2.00;;;;;;;16.72;19.56;98797.44;6165690;23;20021;-82
2022/05/24 08:07:19;;;;;;;5.70;2.00;;;;;;;16.55;19.53;98779.94;6171993;23;20096;-82
2022/05/24 08:09:45;;;;;;;3.42;1.88;;;;;;;16.50;19.56;98795.06;6150556;23;20013;-83
2022/05/24 08:12:12;;;;;;;3.55;1.70;;;;;;;16.22;20.15;98771.00;6178367;23;20024;-85
2022/05/24 08:14:38;;;;;;;7.55;1.70;;;;;;;16.46;20.74;98827.63;6148246;23;20032;-84
2022/05/24 08:17:04;;;;;;;6.57;1.65;;;;;;;16.38;21.09;98804.38;6145307;23;20044;-85
2022/05/24 08:19:31;;;;;;;6.45;1.92;;;;;;;16.15;21.76;98813.34;6140163;23;20021;-84
2022/05/24 08:21:58;;;;;;;9.70;1.98;;;;;;;15.70;22.24;98805.75;6166305;23;20028;-87
2022/05/24 08:24:24;;;;;;;9.00;2.25;;;;;;;15.33;23.08;98799.56;6166043;23;20082;-80
2022/05/24 08:26:50;;;;;;;5.22;1.92;;;;;;;15.26;23.94;98811.22;6163888;23;20052;-82
2022/05/24 08:29:18;;;;;;;5.38;1.90;;;;;;;14.94;24.07;98769.78;6190823;23;20021;-86
2022/05/24 08:31:44;;;;;;;5.82;1.73;;;;;;;15.12;24.21;98803.97;6137235;23;20020;-84
2022/05/24 08:34:10;;;;;;;3.17;1.50;;;;;;;15.53;24.43;98906.16;6187747;23;20020;-84
2022/05/24 08:36:37;;;;;;;5.07;1.40;;;;;;;15.09;24.88;98861.75;6159329;23;20032;-83
2022/05/24 08:39:03;;;;;;;7.85;1.90;;;;;;;15.12;25.31;98893.03;6159099;23;20013;-82
2022/05/24 08:41:54;;;;;;;6.30;1.73;;;;;;;14.86;25.41;98900.22;6135668;23;20021;-80
2022/05/24 08:50:19;;;;;;;4.43;2.10;;;;;;;14.43;26.17;98918.47;6187689;23;20112;-82
2022/05/24 08:52:58;;;;;;;7.80;2.00;;;;;;;13.88;26.09;98869.09;6185373;23;20017;-80
2022/05/24 08:55:32;;;;;;;14.35;2.10;;;;;;;13.93;26.74;98883.69;6157676;23;20021;-80
2022/05/24 08:58:14;;;;;;;6.68;2.15;;;;;;;13.40;27.00;98842.88;6163432;23;20063;-84
2022/05/24 09:00:41;;;;;;;4.25;1.73;;;;;;;14.09;27.54;98954.59;6185250;23;20021;-79
2022/05/24 09:03:08;;;;;;;3.03;1.80;;;;;;;13.89;27.80;98949.25;6157532;23;20044;-78
2022/05/24 09:05:38;;;;;;;6.78;2.17;;;;;;;13.91;28.08;98944.81;6132745;23;20051;-81
2022/05/24 09:08:26;;;;;;;4.15;2.63;;;;;;;14.07;28.12;98976.50;6156854;23;20136;-83
2022/05/24 09:11:02;;;;;;;8.05;2.05;;;;;;;14.01;28.09;98946.19;6158108;23;20032;-79
2022/05/24 09:13:47;;;;;;;5.00;1.80;;;;;;;14.21;28.11;98976.84;6159939;23;20071;-82
2022/05/24 09:16:17;;;;;;;6.43;2.30;;;;;;;14.33;28.43;98979.94;6171436;23;20029;-78
2022/05/24 09:19:24;;;;;;;5.80;2.92;;;;;;;14.37;28.46;98981.50;6164151;23;20017;-79
2022/05/24 09:21:52;;;;;;;8.90;2.00;;;;;;;14.30;28.49;98986.97;6169899;23;20028;-78
2022/05/24 09:24:34;;;;;;;4.03;2.20;;;;;;;14.31;28.51;98990.44;6149830;23;20005;-80
2022/05/24 09:27:08;;;;;;;9.57;4.00;;;;;;;14.18;28.79;98981.34;6180802;23;20004;-79
2022/05/24 09:29:53;;;;;;;7.22;3.45;;;;;;;14.04;29.22;99016.69;6171043;23;20461;-80
2022/05/24 09:32:21;;;;;;;8.27;3.38;;;;;;;14.03;28.92;99014.97;6135556;23;20017;-79
2022/05/24 09:35:05;;;;;;;4.07;1.90;;;;;;;13.85;28.95;98999.03;6160015;23;20024;-80
2022/05/24 09:37:32;;;;;;;8.05;1.92;;;;;;;13.96;29.08;98989.97;6191671;23;20036;-80
2022/05/24 09:40:10;;;;;;;4.47;2.75;;;;;;;14.44;28.88;99019.63;6158089;23;20081;-80
2022/05/24 09:42:37;;;;;;;8.43;2.83;;;;;;;14.34;28.72;98986.88;6157166;23;20017;-79
2022/05/24 09:45:08;;;;;;;6.85;2.08;;;;;;;14.58;28.97;99021.72;6158975;23;20096;-79
2022/05/24 09:47:44;;;;;;;3.80;2.05;;;;;;;14.78;28.66;99026.25;6182951;23;20024;-79
2022/05/24 09:50:23;;;;;;;4.88;2.63;;;;;;;15.03;28.88;99027.88;6183191;23;20067;-78
2022/05/24 09:53:12;;;;;;;5.00;2.53;;;;;;;15.19;28.29;99030.75;6132450;23;20197;-79
2022/05/24 09:59:06;;;;;;;6.97;3.20;;;;;;;14.72;28.56;99044.81;6176395;23;20458;-80
2022/05/24 10:01:48;;;;;;;6.43;2.53;;;;;;;14.29;28.75;99002.72;6133352;23;20101;-78
2022/05/24 10:08:21;;;;;;;32.85;18.08;;;;;;;13.83;28.84;98922.41;6155874;23;20106;-80
2022/05/24 10:11:02;;;;;;;31.73;16.50;;;;;;;14.40;29.00;98997.97;6158060;23;20040;-79
2022/05/24 10:14:13;;;;;;;6.90;3.47;;;;;;;14.81;29.10;99035.75;6112873;23;20016;-79
2022/05/24 10:17:05;;;;;;;10.10;5.18;;;;;;;14.84;29.00;99046.94;6133050;23;20025;-83
2022/05/24 10:20:51;;;;;;;31.50;16.20;;;;;;;14.80;29.12;99045.34;6159889;23;20017;-81
2022/05/24 10:24:02;;;;;;;4.32;2.60;;;;;;;14.93;28.98;99058.81;6136345;23;20024;-79
2022/05/24 10:26:59;;;;;;;24.98;13.82;;;;;;;14.90;29.21;99059.81;6181635;23;20192;-80
2022/05/24 10:29:58;;;;;;;17.67;8.73;;;;;;;15.02;29.35;99055.88;6181891;23;20020;-78
2022/05/24 10:39:24;;;;;;;33.90;17.63;;;;;;;14.59;29.80;99067.94;6182850;23;20024;-81
2022/05/24 10:41:58;;;;;;;9.52;4.90;;;;;;;14.39;29.49;99082.63;6158971;23;20024;-80
2022/05/24 10:44:45;;;;;;;13.10;7.07;;;;;;;14.26;29.72;99076.09;6162143;23;20013;-78
2022/05/24 10:47:21;;;;;;;29.02;16.08;;;;;;;13.57;30.24;99004.38;6189154;23;20525;-80
2022/05/24 10:49:56;;;;;;;14.38;7.93;;;;;;;14.11;30.17;99099.28;6132900;23;20116;-79
2022/05/24 10:52:47;;;;;;;5.93;2.70;;;;;;;13.86;30.30;99067.91;6157174;23;20020;-79
2022/05/24 10:55:21;;;;;;;9.75;2.42;;;;;;;13.94;30.41;99088.53;6157965;23;20391;-79
2022/05/24 10:58:11;;;;;;;42.88;22.35;;;;;;;13.97;30.48;99101.53;6157551;23;20358;-79
2022/05/24 11:00:48;;;;;;;50.40;29.15;;;;;;;14.15;30.85;99110.47;6133311;23;20017;-78
2022/05/24 11:03:39;;;;;;;9.77;3.83;;;;;;;14.27;30.68;99109.19;6159193;23;20035;-78
2022/05/24 11:06:17;;;;;;;7.75;4.45;;;;;;;13.72;30.81;99016.06;6156476;23;20106;-81
2022/05/24 11:08:46;;;;;;;5.22;2.33;;;;;;;14.13;30.84;99101.81;6157779;23;20419;-80
2022/05/24 11:11:21;;;;;;;7.85;4.15;;;;;;;13.82;31.19;99079.34;6157506;23;20021;-80
2022/05/24 11:13:56;;;;;;;7.93;2.65;;;;;;;13.77;30.86;99099.56;6132685;23;20024;-79
2022/05/24 11:16:38;;;;;;;36.97;21.38;;;;;;;13.24;31.44;99002.78;6157889;23;20028;-79
2022/05/24 11:19:36;;;;;;;11.27;6.97;;;;;;;13.78;31.30;99110.00;6187146;23;20064;-80
2022/05/24 11:22:05;;;;;;;10.70;5.15;;;;;;;13.72;31.15;99125.88;6158333;23;20021;-78
2022/05/24 11:24:43;;;;;;;11.00;2.28;;;;;;;13.48;31.69;99114.44;6158456;23;20040;-78
2022/05/24 11:27:22;;;;;;;14.85;8.82;;;;;;;13.61;31.94;99131.44;6135618;23;20100;-79
2022/05/24 11:30:07;;;;;;;9.77;4.95;;;;;;;13.74;31.90;99136.25;6184630;23;20017;-78
2022/05/24 11:32:52;;;;;;;5.15;2.28;;;;;;;13.85;31.52;99132.41;6134166;23;20092;-79
2022/05/24 11:35:18;;;;;;;14.10;2.92;;;;;;;13.92;31.54;99135.66;6157867;23;20382;-79
2022/05/24 11:37:52;;;;;;;8.25;3.55;;;;;;;13.78;31.61;99111.75;6157415;23;20012;-79
2022/05/24 11:40:52;;;;;;;;;;;;;;;;;;;;;
2022/05/24 11:43:43;;;;;;;34.78;19.85;;;;;;;14.23;31.61;99133.78;6185780;23;20521;-80
2022/05/24 11:46:38;;;;;;;19.05;9.57;;;;;;;14.15;31.02;99134.91;6159469;23;20450;-79
2022/05/24 11:49:09;;;;;;;28.02;15.45;;;;;;;13.86;31.38;99139.34;6186846;23;20156;-81
2022/05/24 11:51:47;;;;;;;14.50;5.75;;;;;;;13.67;31.70;99152.16;6162144;23;20047;-80
2022/05/24 11:54:22;;;;;;;9.80;4.45;;;;;;;13.53;31.49;99149.13;6164351;23;20021;-80
2022/05/24 11:56:52;;;;;;;4.78;2.42;;;;;;;13.43;31.79;99153.78;6133862;23;20036;-80
2022/05/24 11:59:49;;;;;;;25.92;14.25;;;;;;;13.38;31.70;99153.03;6159982;23;20239;-82
2022/05/24 12:02:26;;;;;;;7.93;2.30;;;;;;;13.23;31.37;99163.06;6186928;23;20446;-83
2022/05/24 12:08:34;;;;;;;3.40;1.42;;;;;;;13.05;31.87;99124.41;6158823;23;20020;-81
2022/05/24 12:11:29;;;;;;;7.20;3.42;;;;;;;13.34;32.00;99177.56;6156902;23;20021;-80
2022/05/24 12:14:44;;;;;;;;;;;;;;;;;;;;;
2022/05/24 12:17:26;;;;;;;7.72;1.80;;;;;;;13.48;31.63;99141.44;6095035;23;20026;-81
2022/05/24 12:20:34;;;;;;;31.02;16.98;;;;;;;13.74;31.80;99186.81;6095382;23;20090;-80
2022/05/24 12:23:28;;;;;;;4.75;3.05;;;;;;;13.76;31.60;99195.47;6095797;23;20015;-80
2022/05/24 12:25:59;;;;;;;3.40;1.92;;;;;;;13.61;31.23;99182.84;6093310;23;20049;-78
2022/05/24 12:28:37;;;;;;;5.93;3.53;;;;;;;13.63;31.56;99153.16;6068726;23;20174;-81
2022/05/24 12:31:17;;;;;;;5.43;3.10;;;;;;;14.08;31.07;99183.09;6068957;23;20061;-82
2022/05/24 12:33:48;;;;;;;5.55;3.40;;;;;;;14.05;30.61;99192.81;6092557;23;20220;-82
2022/05/24 12:36:29;;;;;;;11.70;7.53;;;;;;;14.01;30.96;99194.69;6092093;23;20575;-81
2022/05/24 12:39:00;;;;;;;2.65;1.80;;;;;;;14.20;30.79;99192.28;6068760;23;20014;-80
2022/05/24 12:41:52;;;;;;;6.03;2.90;;;;;;;14.14;30.43;99195.97;6092955;23;20029;-81
2022/05/24 12:44:56;;;;;;;4.90;1.38;;;;;;;13.97;30.29;99203.53;6092247;23;20021;-81
2022/05/24 12:47:30;;;;;;;5.95;3.08;;;;;;;13.88;30.28;99209.03;6139857;23;20027;-79
2022/05/24 12:50:01;;;;;;;19.80;8.40;;;;;;;13.56;30.08;99154.25;6160392;23;20024;-80
2022/05/24 12:53:23;;;;;;;10.13;2.70;;;;;;;13.56;30.24;99172.56;6160366;23;20063;-80
2022/05/24 12:58:46;;;;;;;28.25;10.15;;;;;;;13.07;30.64;99169.63;6164701;23;20455;-80
2022/05/24 13:01:32;;;;;;;89.20;34.25;;;;;;;13.40;30.57;99216.56;6199777;23;20040;-77
2022/05/24 13:04:19;;;;;;;31.58;13.30;;;;;;;13.50;30.68;99217.16;6200806;23;20028;-78
2022/05/24 13:07:58;;;;;;;7.90;2.15;;;;;;;12.89;30.54;99148.38;6166243;23;20036;-80
2022/05/24 13:10:37;;;;;;;2.63;1.35;;;;;;;13.30;30.64;99222.97;6179967;23;20040;-80
2022/05/24 13:13:23;;;;;;;5.65;1.20;;;;;;;12.71;30.69;99143.66;6174900;23;20080;-80
2022/05/24 13:16:01;;;;;;;4.85;1.10;;;;;;;12.93;30.82;99181.31;6168531;23;20021;-80
2022/05/24 13:18:33;;;;;;;2.67;1.30;;;;;;;13.40;30.89;99237.47;6167094;23;20546;-78
2022/05/24 13:21:02;;;;;;;3.83;1.05;;;;;;;13.43;30.62;99219.13;6169794;23;20052;-79
2022/05/24 13:23:39;;;;;;;3.60;1.08;;;;;;;13.62;30.84;99244.69;6133476;23;20021;-79
2022/05/24 13:26:09;;;;;;;1.23;0.70;;;;;;;13.64;30.29;99240.28;6182654;23;20104;-79
2022/05/24 13:28:49;;;;;;;2.53;0.98;;;;;;;13.51;30.15;99245.00;6179704;23;20016;-77
2022/05/24 13:34:44;;;;;;;5.28;1.10;;;;;;;13.21;30.33;99232.78;6164995;23;20061;-81